createdAt,value
2023-02-06T00:00:47.898Z,25.83
2023-02-06T00:03:18.311Z,21.73
2023-02-06T00:05:56.213Z,22.25
2023-02-06T00:08:27.285Z,19.83
2023-02-06T00:10:57.464Z,25.40
2023-02-06T00:13:27.628Z,39.65
2023-02-06T00:15:57.900Z,26.00
2023-02-06T00:18:28.126Z,25.95
2023-02-06T00:20:58.276Z,22.25
2023-02-06T00:23:28.352Z,21.63
2023-02-06T00:25:58.526Z,42.03
2023-02-06T00:28:28.802Z,25.20
2023-02-06T00:30:59.052Z,20.60
2023-02-06T00:33:29.201Z,33.67
2023-02-06T00:35:59.304Z,24.05
2023-02-06T00:38:29.559Z,23.98
2023-02-06T00:41:00.098Z,27.85
2023-02-06T00:43:30.334Z,22.17
2023-02-06T00:46:00.542Z,24.67
2023-02-06T00:48:30.752Z,21.75
2023-02-06T00:51:01.129Z,25.30
2023-02-06T00:53:31.431Z,23.30
2023-02-06T00:56:01.675Z,21.85
2023-02-06T00:58:31.833Z,19.70
2023-02-06T01:01:01.993Z,20.60
2023-02-06T01:03:32.300Z,22.08
2023-02-06T01:06:02.527Z,25.52
2023-02-06T01:08:32.731Z,30.42
2023-02-06T01:11:10.419Z,28.73
2023-02-06T01:13:41.152Z,18.83
2023-02-06T01:16:13.760Z,25.80
2023-02-06T01:18:44.241Z,22.88
2023-02-06T01:21:17.447Z,18.63
2023-02-06T01:23:49.573Z,19.63
2023-02-06T01:26:22.664Z,22.60
2023-02-06T01:28:53.806Z,23.20
2023-02-06T01:31:29.569Z,24.20
2023-02-06T01:34:00.708Z,26.27
2023-02-06T01:36:30.900Z,23.65
2023-02-06T01:39:01.132Z,25.63
2023-02-06T01:41:31.461Z,21.83
2023-02-06T01:44:10.944Z,19.15
2023-02-06T01:46:43.477Z,45.90
2023-02-06T01:49:25.062Z,21.35
2023-02-06T01:52:04.392Z,21.23
2023-02-06T01:54:35.306Z,21.67
2023-02-06T01:57:10.911Z,21.70
2023-02-06T01:59:44.505Z,24.52
2023-02-06T02:02:14.819Z,22.75
2023-02-06T02:05:03.557Z,22.23
2023-02-06T02:07:38.229Z,18.38
2023-02-06T02:10:08.698Z,20.63
2023-02-06T02:12:38.840Z,22.92
2023-02-06T02:15:09.296Z,31.90
2023-02-06T02:17:45.249Z,21.35
2023-02-06T02:20:47.459Z,19.23
2023-02-06T02:23:33.052Z,21.63
2023-02-06T02:26:15.216Z,22.50
2023-02-06T02:29:11.272Z,21.33
2023-02-06T02:32:03.078Z,20.40
2023-02-06T02:34:57.443Z,27.00
2023-02-06T02:37:35.244Z,17.08
2023-02-06T02:40:29.541Z,17.83
2023-02-06T02:43:20.314Z,17.83
2023-02-06T02:46:14.472Z,18.55
2023-02-06T02:48:47.979Z,15.50
2023-02-06T02:51:18.594Z,17.70
2023-02-06T02:53:48.890Z,18.00
2023-02-06T02:56:22.698Z,29.85
2023-02-06T02:58:58.946Z,18.17
2023-02-06T03:01:39.542Z,23.97
2023-02-06T03:04:17.114Z,17.55
2023-02-06T03:07:16.108Z,15.82
2023-02-06T03:10:05.964Z,17.05
2023-02-06T03:13:12.851Z,19.15
2023-02-06T03:15:55.046Z,16.23
2023-02-06T03:18:46.362Z,16.20
2023-02-06T03:21:20.059Z,11.93
2023-02-06T03:23:54.713Z,12.43
2023-02-06T03:26:28.988Z,13.63
2023-02-06T03:29:06.470Z,15.07
2023-02-06T03:31:49.957Z,14.02
2023-02-06T03:34:35.741Z,11.95
2023-02-06T03:37:06.004Z,13.07
2023-02-06T03:39:36.438Z,15.88
2023-02-06T03:42:10.715Z,14.10
2023-02-06T03:44:47.506Z,17.40
2023-02-06T03:47:19.397Z,15.65
2023-02-06T03:49:51.221Z,17.13
2023-02-06T03:52:26.422Z,14.38
2023-02-06T03:55:04.165Z,11.45
2023-02-06T03:57:37.089Z,12.10
2023-02-06T04:00:07.903Z,14.15
2023-02-06T04:02:39.176Z,14.48
2023-02-06T04:05:09.454Z,13.07
2023-02-06T04:07:39.633Z,11.85
2023-02-06T04:10:10.143Z,12.40
2023-02-06T04:12:40.338Z,13.38
2023-02-06T04:15:11.315Z,12.77
2023-02-06T04:17:57.675Z,20.60
2023-02-06T04:20:30.632Z,12.43
2023-02-06T04:23:00.891Z,11.80
2023-02-06T04:25:31.033Z,16.27
2023-02-06T04:28:01.383Z,11.32
2023-02-06T04:30:31.647Z,11.25
2023-02-06T04:33:01.799Z,12.90
2023-02-06T04:35:31.928Z,12.55
2023-02-06T04:38:02.384Z,11.48
2023-02-06T04:40:32.564Z,17.92
2023-02-06T04:43:02.661Z,11.85
2023-02-06T04:45:32.854Z,11.13
2023-02-06T04:48:03.029Z,12.55
2023-02-06T04:50:34.480Z,19.00
2023-02-06T04:53:04.683Z,12.85
2023-02-06T04:55:36.605Z,17.75
2023-02-06T04:58:06.939Z,10.90
2023-02-06T05:00:38.784Z,9.68
2023-02-06T05:03:09.086Z,14.30
2023-02-06T05:05:39.365Z,11.00
2023-02-06T05:08:09.511Z,12.65
2023-02-06T05:10:39.568Z,24.05
2023-02-06T05:13:09.772Z,12.75
2023-02-06T05:15:40.322Z,10.98
2023-02-06T05:18:10.529Z,9.25
2023-02-06T05:20:41.243Z,9.10
2023-02-06T05:23:11.857Z,14.95
2023-02-06T05:25:42.363Z,10.98
2023-02-06T05:28:12.682Z,11.38
2023-02-06T05:30:51.276Z,11.35
2023-02-06T05:33:21.517Z,9.90
2023-02-06T05:36:01.056Z,8.32
2023-02-06T05:38:33.791Z,9.38
2023-02-06T05:41:04.368Z,14.52
2023-02-06T05:43:34.840Z,9.65
2023-02-06T05:46:05.930Z,20.25
2023-02-06T05:48:36.164Z,17.88
2023-02-06T05:51:06.479Z,16.90
2023-02-06T05:53:36.626Z,12.43
2023-02-06T05:56:07.145Z,9.90
2023-02-06T05:58:37.415Z,11.27
2023-02-06T06:01:07.642Z,7.88
2023-02-06T06:03:38.644Z,7.72
2023-02-06T06:06:08.947Z,11.20
2023-02-06T06:08:39.167Z,7.45
2023-02-06T06:11:09.324Z,7.60
2023-02-06T06:13:39.573Z,7.72
2023-02-06T06:16:09.804Z,12.25
2023-02-06T06:18:40.014Z,13.27
2023-02-06T06:21:10.150Z,11.25
2023-02-06T06:23:40.398Z,16.35
2023-02-06T06:26:10.754Z,10.18
2023-02-06T06:28:41.246Z,9.23
2023-02-06T06:31:12.291Z,10.70
2023-02-06T06:33:42.498Z,7.97
2023-02-06T06:36:14.508Z,9.75
2023-02-06T06:38:44.750Z,11.65
2023-02-06T06:41:15.050Z,12.20
2023-02-06T06:43:45.160Z,10.18
2023-02-06T06:46:15.316Z,13.00
2023-02-06T06:48:45.402Z,14.23
2023-02-06T06:51:15.736Z,9.20
2023-02-06T06:53:45.904Z,9.77
2023-02-06T06:56:16.236Z,9.80
2023-02-06T06:58:46.465Z,8.88
2023-02-06T07:01:18.359Z,8.95
2023-02-06T07:03:48.615Z,9.30
2023-02-06T07:06:18.857Z,8.30
2023-02-06T07:08:49.006Z,8.23
2023-02-06T07:11:19.512Z,8.00
2023-02-06T07:13:49.592Z,8.30
2023-02-06T07:16:19.861Z,9.07
2023-02-06T07:18:50.003Z,7.93
2023-02-06T07:21:20.460Z,11.27
2023-02-06T07:23:50.585Z,8.30
2023-02-06T07:26:21.175Z,9.57
2023-02-06T07:28:52.872Z,10.32
2023-02-06T07:31:23.465Z,11.98
2023-02-06T07:33:53.660Z,10.05
2023-02-06T07:36:23.773Z,12.68
2023-02-06T07:38:53.886Z,10.43
2023-02-06T07:41:24.228Z,9.98
2023-02-06T07:43:55.184Z,9.45
2023-02-06T07:46:25.713Z,8.77
2023-02-06T07:48:55.888Z,9.55
2023-02-06T07:51:26.038Z,12.52
2023-02-06T07:53:56.122Z,11.27
2023-02-06T07:56:26.426Z,11.63
2023-02-06T07:58:56.554Z,13.95
2023-02-06T08:01:27.217Z,11.27
2023-02-06T08:03:57.542Z,13.05
2023-02-06T08:06:27.988Z,11.02
2023-02-06T08:08:58.435Z,11.88
2023-02-06T08:11:30.415Z,11.00
2023-02-06T08:14:01.158Z,14.23
2023-02-06T08:16:31.246Z,12.02
2023-02-06T08:19:01.445Z,13.68
2023-02-06T08:21:31.538Z,11.50
2023-02-06T08:24:01.914Z,10.93
2023-02-06T08:26:32.696Z,9.57
2023-02-06T08:29:04.841Z,10.43
2023-02-06T08:31:38.704Z,10.88
2023-02-06T08:34:12.500Z,11.00
2023-02-06T08:36:43.863Z,8.10
2023-02-06T08:39:14.792Z,11.40
2023-02-06T08:41:45.036Z,13.18
2023-02-06T08:44:17.547Z,10.85
2023-02-06T08:46:49.685Z,8.77
2023-02-06T08:49:26.966Z,11.00
2023-02-06T08:51:57.122Z,9.77
2023-02-06T08:54:27.743Z,11.93
2023-02-06T08:57:01.059Z,11.63
2023-02-06T08:59:31.405Z,8.25
2023-02-06T09:02:01.642Z,8.00
2023-02-06T09:04:32.138Z,10.93
2023-02-06T09:07:02.394Z,9.63
2023-02-06T09:09:32.525Z,12.43
2023-02-06T09:12:04.125Z,14.18
2023-02-06T09:14:35.605Z,12.75
2023-02-06T09:17:05.720Z,12.50
2023-02-06T09:19:36.050Z,12.77
2023-02-06T09:22:11.688Z,9.75
2023-02-06T09:24:45.152Z,8.18
2023-02-06T09:27:15.911Z,12.48
2023-02-06T09:29:48.378Z,12.90
2023-02-06T09:32:18.597Z,10.77
2023-02-06T09:34:53.907Z,12.15
2023-02-06T09:37:24.080Z,10.63
2023-02-06T09:39:54.240Z,9.23
2023-02-06T09:42:33.986Z,7.95
2023-02-06T09:45:15.258Z,9.70
2023-02-06T09:47:49.922Z,10.07
2023-02-06T09:50:27.608Z,12.40
2023-02-06T09:53:45.746Z,13.75
2023-02-06T09:56:40.179Z,8.48
2023-02-06T09:59:31.713Z,8.98
2023-02-06T10:02:39.870Z,10.90
2023-02-06T10:05:20.624Z,9.50
2023-02-06T10:08:08.589Z,9.73
2023-02-06T10:10:53.599Z,8.48
2023-02-06T10:13:38.958Z,17.50
2023-02-06T10:16:32.346Z,9.40
2023-02-06T10:19:14.784Z,8.80
2023-02-06T10:22:27.145Z,9.20
2023-02-06T10:25:18.864Z,7.28
2023-02-06T10:27:54.877Z,9.77
2023-02-06T10:31:08.891Z,8.38
2023-02-06T10:33:57.626Z,8.73
2023-02-06T10:36:51.223Z,10.38
2023-02-06T10:39:42.900Z,8.20
2023-02-06T10:42:23.960Z,11.15
2023-02-06T10:45:18.375Z,10.27
2023-02-06T10:47:55.946Z,9.35
2023-02-06T10:50:39.617Z,7.60
2023-02-06T10:53:32.239Z,10.65
2023-02-06T10:56:05.522Z,9.40
2023-02-06T10:58:46.610Z,8.50
2023-02-06T11:01:26.179Z,6.10
2023-02-06T11:04:04.328Z,10.10
2023-02-06T11:06:34.796Z,7.50
2023-02-06T11:09:05.362Z,7.57
2023-02-06T11:11:42.430Z,10.32
2023-02-06T11:16:48.626Z,10.85
2023-02-06T11:19:38.585Z,8.82
2023-02-06T11:22:13.082Z,10.77
2023-02-06T11:25:08.224Z,10.70
2023-02-06T11:27:44.277Z,10.25
2023-02-06T11:30:26.734Z,10.50
2023-02-06T11:33:20.071Z,8.57
2023-02-06T11:36:00.698Z,12.35
2023-02-06T11:38:32.017Z,10.07
2023-02-06T11:41:05.745Z,11.68
2023-02-06T11:43:42.051Z,10.75
2023-02-06T11:46:26.587Z,11.20
2023-02-06T11:48:56.823Z,10.52
2023-02-06T11:52:13.907Z,12.40
2023-02-06T11:54:54.712Z,12.05
2023-02-06T11:57:27.062Z,11.13
2023-02-06T12:00:00.250Z,13.60
2023-02-06T12:02:32.047Z,16.25
2023-02-06T12:05:15.195Z,13.43
2023-02-06T12:08:03.040Z,18.60
2023-02-06T12:10:39.276Z,11.55
2023-02-06T12:13:21.333Z,11.45
2023-02-06T12:15:55.418Z,11.57
2023-02-06T12:18:41.421Z,10.98
2023-02-06T12:21:24.959Z,11.18
2023-02-06T12:23:58.383Z,12.77
2023-02-06T12:26:31.972Z,13.15
2023-02-06T12:29:40.393Z,14.43
2023-02-06T12:32:18.337Z,14.80
2023-02-06T12:35:00.972Z,11.98
2023-02-06T12:37:39.945Z,10.38
2023-02-06T12:40:43.875Z,14.18
2023-02-06T12:43:16.495Z,13.68
2023-02-06T12:46:00.703Z,13.65
2023-02-06T12:48:55.325Z,11.50
2023-02-06T12:51:33.202Z,14.50
2023-02-06T12:54:15.759Z,11.90
2023-02-06T12:56:51.288Z,15.10
2023-02-06T12:59:58.151Z,10.52
2023-02-06T13:02:58.215Z,12.55
2023-02-06T13:05:36.204Z,10.98
2023-02-06T13:08:19.172Z,10.57
2023-02-06T13:11:22.065Z,10.07
2023-02-06T13:14:02.107Z,13.23
2023-02-06T13:17:08.649Z,14.77
2023-02-06T13:19:44.241Z,12.77
2023-02-06T13:22:16.116Z,10.57
2023-02-06T13:24:48.848Z,14.90
2023-02-06T13:27:41.366Z,13.18
2023-02-06T13:30:29.929Z,11.93
2023-02-06T13:33:14.387Z,12.80
2023-02-06T13:36:16.368Z,13.25
2023-02-06T13:38:46.525Z,10.48
2023-02-06T13:41:16.667Z,9.05
2023-02-06T13:44:00.405Z,10.10
2023-02-06T13:46:57.762Z,9.30
2023-02-06T13:49:49.560Z,9.88
2023-02-06T13:52:43.203Z,8.93
2023-02-06T13:55:14.170Z,12.30
2023-02-06T13:58:13.633Z,11.45
2023-02-06T14:00:47.598Z,11.60
2023-02-06T14:03:31.742Z,11.45
2023-02-06T14:06:37.859Z,10.65
2023-02-06T14:09:09.002Z,10.00
2023-02-06T14:12:21.226Z,18.23
2023-02-06T14:15:14.509Z,10.18
2023-02-06T14:17:57.240Z,15.38
2023-02-06T14:20:41.419Z,19.15
2023-02-06T14:23:48.346Z,13.88
2023-02-06T14:26:27.639Z,13.27
2023-02-06T14:29:14.583Z,15.10
2023-02-06T14:34:31.791Z,11.70
2023-02-06T14:37:22.847Z,14.30
2023-02-06T14:39:55.348Z,12.70
2023-02-06T14:42:28.260Z,13.55
2023-02-06T14:45:03.373Z,14.13
2023-02-06T14:47:42.366Z,16.45
2023-02-06T14:50:25.797Z,14.80
2023-02-06T14:53:07.412Z,16.65
2023-02-06T14:55:42.279Z,17.77
2023-02-06T14:58:27.711Z,16.63
2023-02-06T15:01:13.188Z,14.98
2023-02-06T15:03:45.595Z,18.50
2023-02-06T15:06:30.973Z,16.73
2023-02-06T15:09:01.622Z,16.63
2023-02-06T15:11:33.130Z,15.68
2023-02-06T15:14:08.106Z,15.57
2023-02-06T15:16:49.295Z,19.38
2023-02-06T15:19:30.843Z,17.52
2023-02-06T15:22:03.991Z,17.20
2023-02-06T15:24:55.573Z,15.73
2023-02-06T15:27:32.169Z,22.88
2023-02-06T15:30:18.560Z,24.58
2023-02-06T15:32:51.441Z,23.77
2023-02-06T15:35:33.593Z,26.50
2023-02-06T15:38:11.497Z,23.38
2023-02-06T15:40:45.671Z,20.98
2023-02-06T15:43:20.173Z,20.27
2023-02-06T15:45:52.744Z,17.42
2023-02-06T15:48:28.821Z,19.13
2023-02-06T15:51:18.426Z,18.67
2023-02-06T15:53:51.140Z,28.17
2023-02-06T15:56:34.993Z,23.20
2023-02-06T15:59:13.313Z,30.85
2023-02-06T16:01:44.255Z,24.30
2023-02-06T16:04:29.442Z,21.70
2023-02-06T16:07:24.694Z,21.55
2023-02-06T16:10:04.355Z,25.05
2023-02-06T16:12:42.935Z,16.90
2023-02-06T16:15:32.917Z,23.13
2023-02-06T16:18:25.070Z,17.92
2023-02-06T16:21:22.336Z,21.95
2023-02-06T16:24:04.185Z,21.38
2023-02-06T16:26:47.374Z,19.77
2023-02-06T16:29:30.173Z,22.05
2023-02-06T16:32:15.108Z,20.75
2023-02-06T16:34:51.359Z,24.77
2023-02-06T16:37:27.806Z,23.42
2023-02-06T16:40:02.767Z,28.65
2023-02-06T16:42:39.013Z,25.30
2023-02-06T16:45:24.104Z,24.23
2023-02-06T16:47:56.713Z,20.90
2023-02-06T16:50:26.959Z,20.58
2023-02-06T16:53:00.668Z,18.45
2023-02-06T16:55:30.819Z,19.50
2023-02-06T16:58:02.227Z,19.73
2023-02-06T17:00:32.831Z,20.48
2023-02-06T17:03:03.040Z,27.45
2023-02-06T17:06:04.143Z,20.48
2023-02-06T17:08:42.197Z,23.52
2023-02-06T17:11:13.769Z,29.85
2023-02-06T17:13:44.027Z,22.63
2023-02-06T17:16:20.212Z,27.20
2023-02-06T17:18:51.447Z,25.58
2023-02-06T17:21:24.322Z,27.92
2023-02-06T17:23:54.533Z,23.75
2023-02-06T17:26:24.872Z,23.73
2023-02-06T17:28:56.916Z,25.90
2023-02-06T17:31:27.442Z,23.90
2023-02-06T17:33:57.693Z,25.20
2023-02-06T17:36:32.582Z,27.02
2023-02-06T17:39:02.973Z,41.17
2023-02-06T17:41:33.130Z,35.97
2023-02-06T17:44:03.449Z,37.97
2023-02-06T17:46:33.746Z,39.28
2023-02-06T17:49:04.532Z,39.42
2023-02-06T17:51:35.198Z,37.88
2023-02-06T17:54:06.648Z,40.15
2023-02-06T17:56:37.648Z,43.65
2023-02-06T17:59:07.881Z,41.55
2023-02-06T18:01:38.083Z,39.15
2023-02-06T18:04:13.264Z,36.35
2023-02-06T18:06:43.583Z,39.92
2023-02-06T18:09:15.062Z,39.25
2023-02-06T18:12:05.551Z,38.47
2023-02-06T18:14:36.030Z,40.08
2023-02-06T18:17:07.105Z,46.92
2023-02-06T18:19:42.577Z,50.40
2023-02-06T18:22:17.005Z,51.03
2023-02-06T18:24:48.049Z,50.92
2023-02-06T18:27:19.781Z,49.63
2023-02-06T18:29:52.881Z,46.63
2023-02-06T18:32:23.048Z,48.83
2023-02-06T18:34:53.350Z,52.50
2023-02-06T18:37:23.430Z,51.70
2023-02-06T18:39:55.588Z,62.03
2023-02-06T18:42:44.580Z,53.13
2023-02-06T18:45:14.752Z,51.40
2023-02-06T18:47:44.976Z,44.35
2023-02-06T18:50:15.674Z,46.78
2023-02-06T18:52:45.805Z,58.10
2023-02-06T18:55:15.988Z,66.50
2023-02-06T18:57:49.276Z,65.95
2023-02-06T19:00:21.290Z,63.50
2023-02-06T19:02:51.589Z,55.50
2023-02-06T19:05:21.778Z,63.28
2023-02-06T19:07:53.740Z,76.50
2023-02-06T19:10:25.891Z,65.68
2023-02-06T19:12:56.030Z,56.65
2023-02-06T19:15:26.192Z,62.40
2023-02-06T19:17:56.345Z,67.78
2023-02-06T19:20:27.252Z,68.35
2023-02-06T19:22:57.640Z,61.70
2023-02-06T19:25:27.816Z,64.97
2023-02-06T19:27:58.191Z,61.42
2023-02-06T19:30:28.373Z,63.10
2023-02-06T19:32:58.589Z,57.05
2023-02-06T19:35:28.662Z,50.10
2023-02-06T19:38:00.685Z,50.17
2023-02-06T19:40:30.868Z,44.40
2023-02-06T19:43:00.972Z,36.22
2023-02-06T19:45:31.128Z,41.80
2023-02-06T19:48:01.294Z,51.80
2023-02-06T19:50:31.486Z,38.60
2023-02-06T19:53:01.725Z,41.50
2023-02-06T19:55:31.893Z,41.65
2023-02-06T19:58:02.708Z,37.80
2023-02-06T20:00:32.937Z,37.38
2023-02-06T20:03:03.169Z,40.40
2023-02-06T20:05:34.201Z,71.88
2023-02-06T20:08:04.486Z,44.22
2023-02-06T20:10:37.600Z,44.60
2023-02-06T20:13:08.546Z,50.95
2023-02-06T20:15:46.132Z,46.65
2023-02-06T20:18:16.432Z,45.38
2023-02-06T20:20:50.876Z,41.92
2023-02-06T20:23:27.002Z,42.08
2023-02-06T20:26:01.479Z,43.88
2023-02-06T20:28:31.696Z,61.75
2023-02-06T20:31:08.692Z,46.95
2023-02-06T20:36:15.054Z,44.85
2023-02-06T20:38:49.998Z,87.00
2023-02-06T20:41:22.545Z,42.92
2023-02-06T20:43:52.903Z,43.17
2023-02-06T20:46:24.212Z,39.72
2023-02-06T20:48:58.296Z,47.97
2023-02-06T20:51:29.622Z,39.65
2023-02-06T20:53:59.841Z,29.23
2023-02-06T20:56:30.579Z,23.13
2023-02-06T20:59:01.478Z,16.77
2023-02-06T21:01:31.827Z,13.55
2023-02-06T21:04:07.264Z,9.57
2023-02-06T21:06:38.762Z,6.60
2023-02-06T21:09:09.774Z,5.65
2023-02-06T21:11:42.735Z,6.05
2023-02-06T21:14:14.662Z,4.80
2023-02-06T21:16:45.031Z,6.45
2023-02-06T21:19:17.372Z,6.10
2023-02-06T21:21:47.998Z,7.72
2023-02-06T21:24:18.875Z,8.98
2023-02-06T21:26:49.283Z,5.95
2023-02-06T21:29:20.987Z,7.75
2023-02-06T21:32:00.612Z,8.88
2023-02-06T21:34:37.559Z,9.40
2023-02-06T21:37:07.711Z,10.40
2023-02-06T21:39:40.706Z,10.68
2023-02-06T21:42:11.664Z,7.70
2023-02-06T21:44:41.860Z,12.18
2023-02-06T21:47:11.986Z,12.15
2023-02-06T21:49:42.108Z,9.18
2023-02-06T21:52:12.601Z,7.20
2023-02-06T21:54:43.101Z,6.55
2023-02-06T21:57:13.263Z,6.68
2023-02-06T21:59:43.860Z,6.50
2023-02-06T22:02:13.995Z,7.28
2023-02-06T22:04:44.340Z,6.38
2023-02-06T22:07:14.580Z,6.07
2023-02-06T22:09:44.819Z,7.30
2023-02-06T22:12:14.939Z,5.90
2023-02-06T22:14:45.167Z,6.03
2023-02-06T22:17:15.251Z,6.88
2023-02-06T22:19:45.442Z,8.15
2023-02-06T22:22:15.539Z,10.43
2023-02-06T22:24:45.882Z,7.20
2023-02-06T22:27:16.676Z,8.45
2023-02-06T22:29:46.844Z,5.38
2023-02-06T22:32:17.089Z,7.60
2023-02-06T22:34:47.318Z,7.25
2023-02-06T22:37:17.688Z,5.07
2023-02-06T22:39:47.783Z,6.65
2023-02-06T22:42:17.963Z,5.20
2023-02-06T22:44:48.248Z,7.88
2023-02-06T22:47:18.448Z,6.07
2023-02-06T22:49:51.000Z,7.07
2023-02-06T22:52:39.921Z,5.20
2023-02-06T22:55:10.017Z,6.32
2023-02-06T22:57:40.174Z,6.05
2023-02-06T23:00:12.254Z,7.07
2023-02-06T23:02:42.902Z,5.22
2023-02-06T23:05:13.074Z,5.10
2023-02-06T23:07:43.264Z,4.97
2023-02-06T23:10:13.430Z,4.85
2023-02-06T23:12:43.535Z,3.22
2023-02-06T23:15:13.649Z,6.10
2023-02-06T23:17:43.736Z,5.60
2023-02-06T23:20:13.940Z,5.18
2023-02-06T23:22:44.071Z,4.85
2023-02-06T23:25:14.366Z,4.30
2023-02-06T23:27:44.572Z,4.35
2023-02-06T23:30:14.690Z,4.07
2023-02-06T23:32:44.820Z,2.90
2023-02-06T23:35:15.064Z,2.85
2023-02-06T23:37:45.224Z,2.15
2023-02-06T23:40:15.481Z,3.05
2023-02-06T23:42:45.596Z,2.97
2023-02-06T23:45:15.830Z,2.92
2023-02-06T23:47:45.989Z,3.10
2023-02-06T23:50:16.334Z,3.10
2023-02-06T23:52:46.894Z,2.33
2023-02-06T23:55:17.942Z,3.45
2023-02-06T23:57:48.293Z,1.95
